Hanksville, UT

11:07 AM MDT on October 21, 2014 (GMT -0600)
Canyonlands | Change Station
CLOSE
Current Station
Airport
Location: Moab,
Elevation: 4554 ft
Nearby Weather Stations

Elev 4554 ft 38.75 °N, 109.76 °W | Updated 14 minutes ago

Mostly Cloudy
Mostly Cloudy
67 °F
Feels Like 67 °F
N
13
Wind Variable Wind from SE

Today
High -- | Low -- °F
--% Chance of Precip.
Yesterday
High -- | Low -- °F
Precip. -- in
7:37 AM 6:36 PM
Waning Crescent, 5% visible
Pressure 29.90 in
Visibility 10.0 miles
Clouds Clear
Dew Point 42 °F
Humidity 40%
Rainfall 0.00 in
Snow Depth Not available.
UV 4 out of 12
Pollen 1.50 out of 12
Air Quality Not available.
Flu Activity Sporadic
METAR KCNY 211653Z AUTO 13011KT 10SM CLR 19/06 A3001 RMK AO2 SLP125 T01940056

More Conditions Fewer Conditions

Pressure 29.90 in
Visibility 10.0 miles
Clouds Clear
Dew Point 42 °F
Humidity 40%
Rainfall 0.00 in
Snow Depth Not available.
UV 4 out of 12
Pollen 1.50 out of 12
Air Quality Not available.
Flu Activity Sporadic
METAR KCNY 211653Z AUTO 13011KT 10SM CLR 19/06 A3001 RMK AO2 SLP125 T01940056

More Conditions Fewer Conditions

10-Day Weather Forecast

Almanac

Astronomy

Oct. 21, 2014 Rise Set
Actual Time 7:37 AM MDT 6:36 PM MDT
Civil Twilight 7:10 AM MDT 7:03 PM MDT
Nautical Twilight 6:39 AM MDT 7:34 PM MDT
Astronomical Twilight 6:09 AM MDT 8:04 PM MDT
Moon 5:26 AM MDT 5:31 PM MDT
Length of Visible Light 11h 52m
Length of Day
10h 58m
Tomorrow will be 2m 19s shorter.
Waning Crescent, 5% of the Moon is Illuminated
Today
Waning Crescent
Oct 23
New
Oct 30
First Quarter
Nov 6
Full
Nov 14
Last Quarter

Today's Extremes

State Highs State Lows

Community

WunderPhotos

Upload Photos

1,763,713 photos uploaded!

Nearby

Snow Depth

Station Depth Elevation
Black Flat-U.M. Creek 0 in 9400 ft
Farnsworth Lake 0 in 9600 ft
Gooseberry R.S. 0 in 7920 ft
Clayton Springs 0 in 10000 ft
Buck Flat 0 in 9800 ft

Earthquake Activity

City Distance Mag. Time & Date
No recent earthquake activity has been reported nearby.
Minimum magnitude displayed is 2.5.

Coastal Water Temperatures

Place Temperature
No Stations Reporting

Nearby Weather Stations